Time;durP1;ratioP1;P1;durP2;ratioP2;P2;SDS_P1;SDS_P2;PMS_P1;PMS_P2;Temp;Humidity;BMP_temperature;BMP_pressure;BME280_temperature;BME280_humidity;BME280_pressure;Samples;Min_cycle;Max_cycle;Signal;HPM_P1;HPM_P2
2023/12/27 00:02:39;;;;;;;0.10;0.10;;;;;;;5.44;100.00;99646.13;5152540;27;20224;-51
2023/12/27 00:05:26;;;;;;;0.10;0.10;;;;;;;5.49;100.00;99650.34;5152661;27;20712;-52
2023/12/27 00:08:13;;;;;;;0.00;0.00;;;;;;;5.71;100.00;99662.69;5152827;27;20663;-52
2023/12/27 00:11:00;;;;;;;0.10;0.10;;;;;;;5.80;100.00;99672.00;5153045;27;20188;-52
2023/12/27 00:13:47;;;;;;;0.00;0.00;;;;;;;5.93;100.00;99670.66;5153123;27;20299;-51
2023/12/27 00:16:34;;;;;;;0.10;0.10;;;;;;;5.97;100.00;99666.16;5153637;27;20192;-51
2023/12/27 00:19:22;;;;;;;0.00;0.00;;;;;;;6.04;100.00;99670.28;5151675;27;20224;-52
2023/12/27 00:22:09;;;;;;;0.10;0.10;;;;;;;5.98;100.00;99665.22;5152788;27;20224;-51
2023/12/27 00:24:56;;;;;;;0.00;0.00;;;;;;;6.02;100.00;99662.44;5153085;27;20234;-51
2023/12/27 00:27:43;;;;;;;0.10;0.10;;;;;;;5.91;100.00;99683.03;5152654;27;20274;-52
2023/12/27 00:30:30;;;;;;;0.10;0.10;;;;;;;5.73;100.00;99694.16;5150609;27;20331;-52
2023/12/27 00:33:18;;;;;;;0.03;0.03;;;;;;;5.69;100.00;99680.28;5152557;27;20200;-52
2023/12/27 00:36:07;;;;;;;0.10;0.10;;;;;;;5.92;100.00;99683.88;5151947;27;20696;-51
2023/12/27 00:38:53;;;;;;;0.00;0.00;;;;;;;5.86;100.00;99690.16;5152280;27;20197;-52
2023/12/27 00:41:40;;;;;;;0.00;0.00;;;;;;;5.91;100.00;99688.28;5151760;27;20227;-51
2023/12/27 00:44:28;;;;;;;0.10;0.10;;;;;;;5.94;100.00;99701.31;5152933;27;20199;-51
2023/12/27 00:47:15;;;;;;;0.10;0.10;;;;;;;5.93;100.00;99701.38;5151745;27;20200;-51
2023/12/27 00:50:02;;;;;;;0.10;0.10;;;;;;;6.02;100.00;99683.47;5151353;27;20234;-51
2023/12/27 00:52:50;;;;;;;0.00;0.00;;;;;;;5.97;100.00;99680.16;5152196;27;20324;-52
2023/12/27 00:55:36;;;;;;;0.10;0.10;;;;;;;5.83;100.00;99682.41;5152553;27;20212;-51
2023/12/27 00:58:23;;;;;;;0.10;0.10;;;;;;;5.85;100.00;99685.81;5150863;27;20212;-51
2023/12/27 01:01:12;;;;;;;0.10;0.10;;;;;;;5.83;100.00;99684.19;5151478;27;20217;-51
2023/12/27 01:03:59;;;;;;;0.10;0.10;;;;;;;5.88;100.00;99684.84;5151604;27;20192;-52
2023/12/27 01:06:46;;;;;;;0.10;0.10;;;;;;;5.71;100.00;99694.22;5152239;27;20201;-51
2023/12/27 01:09:35;;;;;;;0.10;0.10;;;;;;;5.91;100.00;99693.53;5151526;27;20200;-51
2023/12/27 01:12:22;;;;;;;0.10;0.10;;;;;;;5.80;100.00;99698.28;5151529;27;20188;-52
2023/12/27 01:15:09;;;;;;;0.00;0.00;;;;;;;5.55;100.00;99706.16;5151248;27;20200;-51
2023/12/27 01:17:56;;;;;;;0.10;0.10;;;;;;;5.42;100.00;99707.53;5152449;27;20528;-51
2023/12/27 01:20:44;;;;;;;0.10;0.10;;;;;;;5.28;100.00;99707.09;5149691;27;20255;-51
2023/12/27 01:23:32;;;;;;;0.10;0.10;;;;;;;5.42;100.00;99704.88;5150988;27;20193;-51
2023/12/27 01:26:21;;;;;;;0.10;0.10;;;;;;;5.30;100.00;99710.53;5152302;27;20219;-52
2023/12/27 01:29:07;;;;;;;0.10;0.10;;;;;;;5.18;100.00;99712.66;5151804;27;20365;-52
2023/12/27 01:31:54;;;;;;;0.10;0.10;;;;;;;5.09;100.00;99712.97;5153298;27;20199;-52
2023/12/27 01:34:42;;;;;;;0.10;0.10;;;;;;;5.13;100.00;99705.88;5152075;27;20200;-52
2023/12/27 01:37:31;;;;;;;0.03;0.03;;;;;;;5.27;100.00;99700.16;5153123;27;20188;-51
2023/12/27 01:40:20;;;;;;;0.10;0.10;;;;;;;5.27;100.00;99695.75;5153238;27;20284;-51
2023/12/27 01:43:08;;;;;;;0.00;0.00;;;;;;;5.08;100.00;99694.66;5151532;27;20287;-51
2023/12/27 01:45:55;;;;;;;0.10;0.10;;;;;;;5.30;100.00;99700.88;5152916;27;20250;-51
2023/12/27 01:48:43;;;;;;;0.10;0.10;;;;;;;5.26;100.00;99699.28;5153200;27;20323;-51
2023/12/27 01:51:31;;;;;;;0.00;0.00;;;;;;;5.03;100.00;99696.59;5151282;27;20192;-51
2023/12/27 01:54:18;;;;;;;0.00;0.00;;;;;;;4.99;100.00;99692.31;5151237;27;20192;-52
2023/12/27 01:57:05;;;;;;;0.10;0.10;;;;;;;5.02;100.00;99700.97;5153558;27;20201;-51
2023/12/27 01:59:54;;;;;;;0.10;0.10;;;;;;;4.95;100.00;99702.06;5151626;27;20196;-52
2023/12/27 02:02:42;;;;;;;0.10;0.10;;;;;;;4.92;100.00;99702.16;5150456;27;20781;-52
2023/12/27 02:05:30;;;;;;;0.10;0.10;;;;;;;4.78;100.00;99702.59;5151663;27;20189;-52
2023/12/27 02:08:18;;;;;;;0.03;0.03;;;;;;;4.68;100.00;99703.81;5156673;27;20193;-51
2023/12/27 02:11:06;;;;;;;0.00;0.00;;;;;;;4.70;100.00;99695.88;5155191;27;20193;-51
2023/12/27 02:13:53;;;;;;;0.10;0.10;;;;;;;4.50;100.00;99712.22;5153879;27;20548;-52
2023/12/27 02:16:43;;;;;;;0.10;0.10;;;;;;;4.62;100.00;99700.50;5156013;27;20193;-52
2023/12/27 02:19:30;;;;;;;0.10;0.10;;;;;;;4.49;100.00;99697.41;5154336;27;20301;-52
2023/12/27 02:22:19;;;;;;;0.10;0.10;;;;;;;4.54;100.00;99685.03;5156015;27;20212;-51
2023/12/27 02:25:09;;;;;;;0.10;0.10;;;;;;;4.47;100.00;99684.34;5156545;27;20679;-51
2023/12/27 02:27:57;;;;;;;0.10;0.10;;;;;;;4.36;100.00;99698.69;5156535;27;20205;-52
2023/12/27 02:30:45;;;;;;;0.10;0.10;;;;;;;4.29;100.00;99698.88;5156091;27;20210;-52
2023/12/27 02:33:31;;;;;;;0.10;0.10;;;;;;;4.29;100.00;99704.13;5156398;27;20197;-52
2023/12/27 02:36:18;;;;;;;0.10;0.10;;;;;;;4.27;100.00;99699.81;5156029;27;20201;-52
2023/12/27 02:39:06;;;;;;;0.10;0.10;;;;;;;4.53;100.00;99704.25;5156513;27;20192;-51
2023/12/27 02:41:54;;;;;;;0.00;0.00;;;;;;;4.25;100.00;99704.25;5155035;27;20823;-51
2023/12/27 02:44:40;;;;;;;0.10;0.10;;;;;;;4.15;100.00;99703.66;5155800;27;20254;-51
2023/12/27 02:47:27;;;;;;;0.00;0.00;;;;;;;3.94;100.00;99699.03;5154638;27;20289;-51
2023/12/27 02:50:14;;;;;;;0.10;0.10;;;;;;;4.01;100.00;99700.56;5151756;27;20200;-51
2023/12/27 02:53:01;;;;;;;0.00;0.00;;;;;;;3.91;100.00;99696.50;5153668;27;20197;-52
2023/12/27 02:55:48;;;;;;;0.10;0.10;;;;;;;4.54;100.00;99695.53;5155989;27;20193;-51
2023/12/27 02:58:39;;;;;;;0.10;0.10;;;;;;;4.82;100.00;99687.59;5154397;27;20197;-52
2023/12/27 03:01:26;;;;;;;0.10;0.10;;;;;;;4.68;100.00;99681.97;5153525;27;20231;-51
2023/12/27 03:04:12;;;;;;;0.10;0.10;;;;;;;4.74;100.00;99680.00;5153436;27;20193;-51
2023/12/27 03:07:00;;;;;;;0.10;0.10;;;;;;;4.56;100.00;99675.34;5155137;27;20234;-51
2023/12/27 03:09:47;;;;;;;0.10;0.10;;;;;;;4.39;100.00;99682.84;5154592;27;20212;-51
2023/12/27 03:12:34;;;;;;;0.00;0.00;;;;;;;4.74;100.00;99673.91;5153932;27;20188;-51
2023/12/27 03:15:23;;;;;;;0.10;0.10;;;;;;;4.44;100.00;99670.44;5153748;27;20446;-51
2023/12/27 03:18:09;;;;;;;0.10;0.10;;;;;;;4.67;100.00;99661.88;5154463;27;20318;-52
2023/12/27 03:20:56;;;;;;;0.10;0.10;;;;;;;4.49;100.00;99661.53;5152496;27;20753;-52
2023/12/27 03:23:43;;;;;;;0.10;0.10;;;;;;;4.33;100.00;99662.91;5152825;27;20388;-51
2023/12/27 03:26:31;;;;;;;0.10;0.10;;;;;;;4.25;100.00;99664.94;5154391;27;20391;-51
2023/12/27 03:29:18;;;;;;;0.10;0.10;;;;;;;4.16;100.00;99658.19;5155395;27;20193;-51
2023/12/27 03:32:07;;;;;;;0.10;0.10;;;;;;;4.10;100.00;99647.88;5153844;27;20296;-52
2023/12/27 03:34:53;;;;;;;0.10;0.10;;;;;;;4.07;100.00;99650.59;5153049;27;20189;-52
2023/12/27 03:37:41;;;;;;;0.10;0.10;;;;;;;4.18;100.00;99656.38;5155208;27;20192;-51
2023/12/27 03:40:28;;;;;;;0.10;0.10;;;;;;;4.08;100.00;99656.72;5154954;27;20342;-51
2023/12/27 03:43:15;;;;;;;0.10;0.10;;;;;;;4.18;100.00;99650.28;5153980;27;20362;-52
2023/12/27 03:46:01;;;;;;;0.10;0.10;;;;;;;4.07;100.00;99657.63;5154760;27;20202;-52
2023/12/27 03:48:49;;;;;;;0.10;0.10;;;;;;;3.93;100.00;99656.22;5152511;27;20277;-52
2023/12/27 03:51:37;;;;;;;0.07;0.07;;;;;;;4.08;100.00;99656.72;5153803;27;20197;-51
2023/12/27 03:54:26;;;;;;;0.00;0.00;;;;;;;4.10;100.00;99663.63;5155249;27;20642;-52
2023/12/27 03:57:16;;;;;;;0.10;0.10;;;;;;;4.10;100.00;99657.50;5154335;27;20192;-52
2023/12/27 04:00:10;;;;;;;0.00;0.00;;;;;;;4.02;100.00;99652.50;5154450;27;20200;-51
2023/12/27 04:03:00;;;;;;;0.10;0.10;;;;;;;4.01;100.00;99650.78;5154643;27;20220;-51
2023/12/27 04:05:51;;;;;;;0.10;0.10;;;;;;;4.08;100.00;99646.22;5153284;27;20195;-51
2023/12/27 04:08:40;;;;;;;0.10;0.10;;;;;;;3.88;100.00;99646.81;5153662;27;20359;-51
2023/12/27 04:11:28;;;;;;;0.10;0.10;;;;;;;3.93;100.00;99631.78;5152387;27;20200;-52
2023/12/27 04:14:19;;;;;;;0.00;0.00;;;;;;;4.01;100.00;99635.91;5153334;27;20185;-52
2023/12/27 04:17:11;;;;;;;0.10;0.10;;;;;;;4.06;100.00;99646.28;5154678;27;20254;-51
2023/12/27 04:20:02;;;;;;;0.10;0.10;;;;;;;4.32;100.00;99642.84;5152201;27;20235;-52
2023/12/27 04:22:54;;;;;;;0.00;0.00;;;;;;;3.90;100.00;99643.22;5154245;27;20232;-51
2023/12/27 04:25:44;;;;;;;0.10;0.10;;;;;;;3.73;100.00;99650.72;5152860;27;20275;-51
2023/12/27 04:28:36;;;;;;;0.10;0.10;;;;;;;3.82;100.00;99646.97;5153900;27;20231;-51
2023/12/27 04:31:24;;;;;;;0.00;0.00;;;;;;;3.88;100.00;99646.81;5154348;27;20365;-52
2023/12/27 04:34:16;;;;;;;0.10;0.10;;;;;;;3.85;100.00;99658.22;5151464;27;20192;-52
2023/12/27 04:37:05;;;;;;;0.00;0.00;;;;;;;3.93;100.00;99650.13;5154158;27;20654;-52
2023/12/27 04:39:56;;;;;;;0.00;0.00;;;;;;;4.01;100.00;99651.63;5154023;27;20193;-52
2023/12/27 04:42:45;;;;;;;0.00;0.00;;;;;;;4.03;100.00;99655.06;5153747;27;20321;-51
2023/12/27 04:45:33;;;;;;;0.07;0.07;;;;;;;4.27;100.00;99656.09;5153987;27;20204;-52
2023/12/27 04:48:23;;;;;;;0.10;0.10;;;;;;;4.64;100.00;99648.88;5152483;27;20303;-52
2023/12/27 04:51:12;;;;;;;0.10;0.10;;;;;;;4.66;100.00;99640.03;5153932;27;20282;-51
2023/12/27 04:54:00;;;;;;;0.00;0.00;;;;;;;4.46;100.00;99638.03;5152955;27;20344;-51
2023/12/27 04:56:54;;;;;;;0.00;0.00;;;;;;;4.52;100.00;99631.72;5152394;27;20197;-51
2023/12/27 04:59:43;;;;;;;0.07;0.07;;;;;;;4.69;100.00;99631.19;5152223;27;20193;-51
2023/12/27 05:02:32;;;;;;;0.10;0.10;;;;;;;4.51;100.00;99630.88;5152312;27;20213;-51
2023/12/27 05:05:20;;;;;;;0.00;0.00;;;;;;;4.26;100.00;99625.56;5151481;27;20188;-52
2023/12/27 05:08:09;;;;;;;0.10;0.10;;;;;;;4.22;100.00;99628.31;5153594;27;20210;-52
2023/12/27 05:10:57;;;;;;;0.00;0.00;;;;;;;4.12;100.00;99626.88;5153208;27;20189;-52
2023/12/27 05:13:49;;;;;;;0.00;0.00;;;;;;;4.15;100.00;99619.78;5152342;27;20208;-51
2023/12/27 05:16:38;;;;;;;0.00;0.00;;;;;;;4.25;100.00;99620.38;5153679;27;20274;-51
2023/12/27 05:19:26;;;;;;;0.10;0.10;;;;;;;4.69;100.00;99623.31;5151742;27;20303;-51
2023/12/27 05:22:17;;;;;;;0.10;0.10;;;;;;;4.68;100.00;99616.38;5153833;27;20722;-52
2023/12/27 05:25:07;;;;;;;0.10;0.10;;;;;;;4.71;100.00;99606.63;5152827;27;20330;-52
2023/12/27 05:27:55;;;;;;;0.10;0.10;;;;;;;4.69;100.00;99615.44;5153263;27;20192;-52
2023/12/27 05:30:50;;;;;;;0.10;0.10;;;;;;;4.69;100.00;99611.06;5153475;27;20189;-52
2023/12/27 05:33:40;;;;;;;0.10;0.10;;;;;;;4.57;100.00;99611.47;5152368;27;20315;-52
2023/12/27 05:36:29;;;;;;;0.03;0.03;;;;;;;5.06;100.00;99613.31;5153441;27;20197;-51
2023/12/27 05:39:18;;;;;;;0.00;0.00;;;;;;;4.74;100.00;99608.31;5152194;27;20322;-52
2023/12/27 05:42:09;;;;;;;0.00;0.00;;;;;;;4.93;100.00;99592.81;5155435;27;20197;-51
2023/12/27 05:44:59;;;;;;;0.10;0.10;;;;;;;4.79;100.00;99603.75;5157165;27;20212;-52
2023/12/27 05:47:50;;;;;;;0.00;0.00;;;;;;;4.77;100.00;99598.56;5156730;27;20192;-51
2023/12/27 05:50:40;;;;;;;0.10;0.10;;;;;;;4.70;100.00;99609.28;5155816;27;20197;-52
2023/12/27 05:53:29;;;;;;;0.03;0.03;;;;;;;4.84;100.00;99599.22;5157499;27;20262;-52
2023/12/27 05:56:21;;;;;;;0.10;0.10;;;;;;;4.86;100.00;99608.75;5156802;27;20208;-52
2023/12/27 05:59:10;;;;;;;0.10;0.10;;;;;;;4.96;100.00;99605.81;5156955;27;20193;-51
2023/12/27 06:02:00;;;;;;;0.10;0.10;;;;;;;4.92;100.00;99610.28;5156711;27;20192;-52
2023/12/27 06:04:50;;;;;;;0.10;0.10;;;;;;;5.00;100.00;99608.25;5155714;27;20581;-52
2023/12/27 06:07:40;;;;;;;0.00;0.00;;;;;;;5.12;100.00;99615.75;5156889;27;20208;-52
2023/12/27 06:10:28;;;;;;;0.10;0.10;;;;;;;5.36;100.00;99621.03;5155151;27;20258;-51
2023/12/27 06:13:19;;;;;;;0.10;0.10;;;;;;;5.19;100.00;99608.50;5156640;27;20188;-52
2023/12/27 06:16:10;;;;;;;0.10;0.10;;;;;;;5.24;100.00;99598.69;5157089;27;20197;-52
2023/12/27 06:19:02;;;;;;;0.10;0.10;;;;;;;5.53;100.00;99595.03;5155027;27;20231;-52
2023/12/27 06:21:53;;;;;;;0.00;0.00;;;;;;;5.46;100.00;99610.16;5156553;27;20247;-52
2023/12/27 06:24:53;;;;;;;0.10;0.10;;;;;;;5.60;100.00;99614.91;5156224;27;20231;-52
2023/12/27 06:27:42;;;;;;;0.10;0.10;;;;;;;5.60;100.00;99614.06;5156290;27;20192;-52
2023/12/27 06:30:34;;;;;;;0.00;0.00;;;;;;;5.53;100.00;99623.06;5156339;27;20185;-52
2023/12/27 06:33:25;;;;;;;0.00;0.00;;;;;;;5.70;100.00;99625.94;5155956;27;20572;-52
2023/12/27 06:36:17;;;;;;;0.10;0.10;;;;;;;5.84;100.00;99628.06;5156110;27;20270;-51
2023/12/27 06:39:08;;;;;;;0.03;0.03;;;;;;;5.94;100.00;99632.94;5156195;27;20188;-52
2023/12/27 06:41:59;;;;;;;0.00;0.00;;;;;;;5.80;100.00;99642.25;5155858;27;20193;-52
2023/12/27 06:44:51;;;;;;;0.00;0.00;;;;;;;5.70;100.00;99639.09;5156447;27;20315;-52
2023/12/27 06:47:40;;;;;;;0.00;0.00;;;;;;;5.77;100.00;99635.31;5155705;27;20197;-52
2023/12/27 06:50:28;;;;;;;0.00;0.00;;;;;;;6.14;100.00;99634.81;5154922;27;20295;-51
2023/12/27 06:53:21;;;;;;;0.10;0.10;;;;;;;6.16;100.00;99634.75;5156174;27;20201;-52
2023/12/27 06:56:12;;;;;;;0.00;0.00;;;;;;;6.29;100.00;99631.59;5155133;27;20188;-51
2023/12/27 06:59:01;;;;;;;0.10;0.10;;;;;;;6.25;100.00;99624.75;5155633;27;20725;-52
2023/12/27 07:01:49;;;;;;;0.00;0.00;;;;;;;6.38;100.00;99629.53;5155552;27;20189;-52
2023/12/27 07:04:43;;;;;;;0.00;0.00;;;;;;;6.56;100.00;99634.94;5154466;27;20212;-52
2023/12/27 07:07:32;;;;;;;0.00;0.00;;;;;;;6.80;100.00;99632.22;5154932;27;20204;-51
2023/12/27 07:10:21;;;;;;;0.00;0.00;;;;;;;6.56;100.00;99626.16;5155244;27;20193;-52
2023/12/27 07:13:11;;;;;;;0.10;0.10;;;;;;;6.56;100.00;99621.78;5155398;27;20560;-51
2023/12/27 07:15:59;;;;;;;0.00;0.00;;;;;;;6.44;100.00;99630.13;5154193;27;20300;-52
2023/12/27 07:18:47;;;;;;;0.00;0.00;;;;;;;6.53;100.00;99621.88;5154153;27;20351;-52
2023/12/27 07:21:35;;;;;;;0.10;0.10;;;;;;;6.60;100.00;99619.88;5155413;27;20188;-52
2023/12/27 07:24:24;;;;;;;0.00;0.00;;;;;;;6.57;100.00;99623.50;5155105;27;20212;-52
2023/12/27 07:27:13;;;;;;;0.00;0.00;;;;;;;6.59;100.00;99621.63;5154281;27;20197;-52
2023/12/27 07:30:04;;;;;;;0.10;0.10;;;;;;;6.56;100.00;99623.53;5155261;27;20234;-53
2023/12/27 07:32:55;;;;;;;0.00;0.00;;;;;;;6.52;100.00;99625.44;5155350;27;20189;-52
2023/12/27 07:35:43;;;;;;;0.00;0.00;;;;;;;6.69;100.00;99627.38;5153990;27;20189;-52
2023/12/27 07:38:32;;;;;;;0.10;0.10;;;;;;;6.70;100.00;99618.56;5154992;27;20203;-52
2023/12/27 07:41:25;;;;;;;0.00;0.00;;;;;;;6.97;100.00;99618.34;5153975;27;20209;-52
2023/12/27 07:44:14;;;;;;;0.10;0.10;;;;;;;6.90;100.00;99623.00;5155016;27;20193;-52
2023/12/27 07:47:06;;;;;;;0.10;0.10;;;;;;;6.89;100.00;99630.06;5154532;27;20196;-52
2023/12/27 07:49:55;;;;;;;0.10;0.10;;;;;;;6.80;100.00;99625.16;5152679;27;20196;-52
2023/12/27 07:52:43;;;;;;;0.10;0.10;;;;;;;6.89;100.00;99622.16;5154230;27;20223;-52
2023/12/27 07:55:31;;;;;;;0.00;0.00;;;;;;;6.91;100.00;99624.72;5155328;27;20314;-51
2023/12/27 07:58:20;;;;;;;0.10;0.10;;;;;;;6.89;100.00;99616.91;5154635;27;20188;-52
2023/12/27 08:01:08;;;;;;;0.00;0.00;;;;;;;6.96;100.00;99625.41;5154243;27;20307;-52
2023/12/27 08:03:59;;;;;;;0.10;0.10;;;;;;;6.99;100.00;99608.63;5153286;27;20271;-52
2023/12/27 08:06:49;;;;;;;0.00;0.00;;;;;;;6.88;100.00;99604.66;5153681;27;20188;-52
2023/12/27 08:09:37;;;;;;;0.00;0.00;;;;;;;6.81;100.00;99603.19;5154152;27;20231;-52
2023/12/27 08:12:25;;;;;;;0.00;0.00;;;;;;;6.82;100.00;99589.09;5154283;27;20201;-52
2023/12/27 08:15:13;;;;;;;0.10;0.10;;;;;;;6.79;100.00;99578.72;5154201;27;20188;-51
2023/12/27 08:18:03;;;;;;;0.00;0.00;;;;;;;6.86;100.00;99582.81;5154471;27;20241;-52
2023/12/27 08:20:54;;;;;;;0.00;0.00;;;;;;;6.99;100.00;99575.22;5132612;27;20271;-52
2023/12/27 08:23:42;;;;;;;0.00;0.00;;;;;;;7.03;100.00;99579.44;5133008;27;20320;-52
2023/12/27 08:26:37;;;;;;;0.00;0.00;;;;;;;6.96;100.00;99579.78;5132994;27;20239;-52
2023/12/27 08:29:27;;;;;;;0.00;0.00;;;;;;;6.94;100.00;99581.59;5133713;27;20200;-52
2023/12/27 08:32:15;;;;;;;0.03;0.03;;;;;;;6.73;100.00;99578.09;5132435;27;20312;-52
2023/12/27 08:35:07;;;;;;;0.00;0.00;;;;;;;6.99;100.00;99563.84;5132309;27;20645;-52
2023/12/27 08:37:58;;;;;;;0.10;0.10;;;;;;;7.11;100.00;99568.56;5132816;27;20315;-51
2023/12/27 08:40:47;;;;;;;0.00;0.00;;;;;;;7.07;100.00;99561.75;5133151;27;20194;-53
2023/12/27 08:43:42;;;;;;;0.00;0.00;;;;;;;7.20;100.00;99539.19;5133430;27;20266;-52
2023/12/27 08:46:30;;;;;;;0.00;0.00;;;;;;;7.17;100.00;99539.34;5132712;27;20217;-51
2023/12/27 08:49:21;;;;;;;0.00;0.00;;;;;;;7.18;100.00;99535.78;5132038;27;20274;-52
2023/12/27 08:52:09;;;;;;;0.00;0.00;;;;;;;7.09;100.00;99528.28;5132763;27;20320;-52
2023/12/27 08:55:05;;;;;;;0.00;0.00;;;;;;;7.10;100.00;99540.53;5133362;27;20264;-51
2023/12/27 08:57:54;;;;;;;0.00;0.00;;;;;;;6.98;100.00;99546.34;5132939;27;20197;-52
2023/12/27 09:00:42;;;;;;;0.10;0.10;;;;;;;7.02;100.00;99550.53;5132680;27;20248;-51
2023/12/27 09:03:38;;;;;;;0.10;0.10;;;;;;;7.10;100.00;99551.06;5132328;27;20308;-52
2023/12/27 09:06:27;;;;;;;0.10;0.10;;;;;;;7.15;100.00;99547.31;5131561;27;20224;-52
2023/12/27 09:09:17;;;;;;;0.00;0.00;;;;;;;7.02;100.00;99556.66;5131951;27;20218;-52
2023/12/27 09:12:08;;;;;;;0.00;0.00;;;;;;;6.97;100.00;99565.69;5132372;28;20190;-52
2023/12/27 09:14:57;;;;;;;0.00;0.00;;;;;;;6.89;100.00;99566.00;5132415;28;20197;-52
2023/12/27 09:17:47;;;;;;;0.00;0.00;;;;;;;6.85;100.00;99574.94;5136234;27;20197;-51
2023/12/27 09:20:36;;;;;;;0.00;0.00;;;;;;;6.98;100.00;99575.31;5135427;27;20272;-52
2023/12/27 09:23:24;;;;;;;0.10;0.10;;;;;;;7.11;100.00;99573.84;5136909;27;20205;-52
2023/12/27 09:26:13;;;;;;;0.00;0.00;;;;;;;6.90;100.00;99578.25;5135555;27;20331;-52
2023/12/27 09:29:09;;;;;;;0.00;0.00;;;;;;;6.88;100.00;99569.56;5136550;27;20679;-52
2023/12/27 09:31:59;;;;;;;0.00;0.00;;;;;;;6.84;100.00;99553.03;5136877;27;20221;-52
2023/12/27 09:34:49;;;;;;;0.00;0.00;;;;;;;6.95;100.00;99564.88;5135940;27;20320;-52
2023/12/27 09:37:39;;;;;;;0.00;0.00;;;;;;;7.09;100.00;99573.91;5135412;27;20210;-52
2023/12/27 09:40:27;;;;;;;0.10;0.10;;;;;;;7.02;100.00;99569.81;5135810;27;20694;-52
2023/12/27 09:43:18;;;;;;;0.10;0.10;;;;;;;7.11;100.00;99585.22;5136935;27;20231;-52
2023/12/27 09:46:11;;;;;;;0.00;0.00;;;;;;;7.16;100.00;99580.63;5136567;27;20221;-52
2023/12/27 09:48:58;;;;;;;0.07;0.07;;;;;;;7.05;100.00;99576.75;5135347;27;20201;-52
2023/12/27 09:51:46;;;;;;;0.10;0.10;;;;;;;6.89;100.00;99564.22;5135797;27;20259;-52
2023/12/27 09:54:33;;;;;;;0.00;0.00;;;;;;;7.06;100.00;99568.78;5136682;27;20259;-52
2023/12/27 09:57:22;;;;;;;0.00;0.00;;;;;;;7.00;100.00;99557.66;5136293;27;20193;-52
2023/12/27 10:00:12;;;;;;;0.10;0.10;;;;;;;7.04;100.00;99556.59;5134382;27;20239;-52
2023/12/27 10:03:04;;;;;;;0.00;0.00;;;;;;;7.28;100.00;99550.25;5136511;27;20205;-52
2023/12/27 10:05:59;;;;;;;0.00;0.00;;;;;;;7.44;100.00;99542.53;5134811;27;20715;-53
2023/12/27 10:08:47;;;;;;;0.00;0.00;;;;;;;7.71;100.00;99537.75;5136378;27;20209;-52
2023/12/27 10:11:35;;;;;;;0.00;0.00;;;;;;;7.90;100.00;99527.22;5135049;27;20190;-52
2023/12/27 10:14:23;;;;;;;0.10;0.10;;;;;;;7.83;100.00;99518.75;5135806;27;20198;-51
2023/12/27 10:17:10;;;;;;;0.10;0.10;;;;;;;8.06;100.00;99504.47;5135790;27;20548;-52
2023/12/27 10:19:59;;;;;;;0.10;0.10;;;;;;;8.04;100.00;99499.25;5148111;27;20239;-52
2023/12/27 10:22:46;;;;;;;0.00;0.00;;;;;;;7.89;100.00;99494.72;5156138;27;20238;-52
2023/12/27 10:25:33;;;;;;;0.10;0.10;;;;;;;8.09;100.00;99492.91;5156167;27;20307;-52
2023/12/27 10:28:23;;;;;;;0.00;0.00;;;;;;;8.33;100.00;99495.22;5155776;27;20188;-52
2023/12/27 10:31:10;;;;;;;0.00;0.00;;;;;;;8.33;100.00;99487.28;5156418;27;20266;-52
2023/12/27 10:34:02;;;;;;;0.10;0.10;;;;;;;8.17;100.00;99469.66;5155356;27;20318;-52
2023/12/27 10:36:52;;;;;;;0.00;0.00;;;;;;;8.10;100.00;99461.16;5155862;27;20200;-52
2023/12/27 10:39:44;;;;;;;0.00;0.00;;;;;;;8.14;100.00;99470.66;5157217;27;20203;-52
2023/12/27 10:42:30;;;;;;;0.00;0.00;;;;;;;8.22;100.00;99460.59;5157221;27;20294;-52
2023/12/27 10:45:17;;;;;;;0.03;0.03;;;;;;;7.98;100.00;99460.00;5157150;27;20262;-52
2023/12/27 10:48:05;;;;;;;0.00;0.00;;;;;;;8.12;100.00;99463.75;5157010;27;20192;-52
2023/12/27 10:50:53;;;;;;;0.00;0.00;;;;;;;8.03;100.00;99458.00;5156237;27;20188;-51
2023/12/27 10:53:47;;;;;;;0.00;0.00;;;;;;;8.12;100.00;99446.13;5157088;27;20234;-51
2023/12/27 10:56:36;;;;;;;0.00;0.00;;;;;;;8.18;100.00;99440.53;5156991;27;20189;-52
2023/12/27 10:59:24;;;;;;;0.10;0.10;;;;;;;8.32;100.00;99437.22;5156047;27;20193;-51
2023/12/27 11:02:13;;;;;;;0.10;0.10;;;;;;;8.24;100.00;99418.28;5155224;27;20302;-52
2023/12/27 11:05:01;;;;;;;0.00;0.00;;;;;;;8.54;100.00;99408.84;5155466;27;20245;-52
2023/12/27 11:07:49;;;;;;;0.00;0.00;;;;;;;8.69;100.00;99403.69;5156123;27;20224;-52
2023/12/27 11:10:39;;;;;;;0.00;0.00;;;;;;;8.83;100.00;99390.59;5156704;27;20546;-52
2023/12/27 11:13:27;;;;;;;0.00;0.00;;;;;;;8.65;100.00;99383.66;5156405;27;20209;-52
2023/12/27 11:16:17;;;;;;;0.00;0.00;;;;;;;8.86;100.00;99379.88;5156605;27;20209;-52
2023/12/27 11:19:06;;;;;;;0.00;0.00;;;;;;;8.57;100.00;99376.13;5154711;27;20288;-52
2023/12/27 11:21:53;;;;;;;0.00;0.00;;;;;;;8.90;100.00;99365.59;5156424;27;20242;-52
2023/12/27 11:24:42;;;;;;;0.00;0.00;;;;;;;8.76;100.00;99362.81;5156034;27;20262;-52
2023/12/27 11:27:30;;;;;;;0.00;0.00;;;;;;;8.74;100.00;99362.03;5156249;27;20258;-52
2023/12/27 11:30:19;;;;;;;0.00;0.00;;;;;;;8.93;100.00;99361.91;5156352;27;20201;-52
2023/12/27 11:33:06;;;;;;;0.00;0.00;;;;;;;8.69;100.00;99354.38;5155400;27;20205;-52
2023/12/27 11:35:53;;;;;;;0.00;0.00;;;;;;;8.51;100.00;99360.63;5155085;27;20208;-52
2023/12/27 11:38:40;;;;;;;0.00;0.00;;;;;;;8.71;100.00;99356.94;5155642;27;20188;-52
2023/12/27 11:41:27;;;;;;;0.07;0.07;;;;;;;8.77;100.00;99353.94;5155923;27;20196;-52
2023/12/27 11:44:17;;;;;;;0.00;0.00;;;;;;;8.69;100.00;99353.53;5156045;27;20295;-52
2023/12/27 11:47:05;;;;;;;0.00;0.00;;;;;;;8.60;100.00;99349.59;5155888;27;20278;-52
2023/12/27 11:50:19;;;;;;;0.00;0.00;;;;;;;8.59;100.00;99348.75;5154517;27;20192;-52
2023/12/27 11:53:06;;;;;;;0.00;0.00;;;;;;;8.60;100.00;99350.44;5155935;27;20234;-52
2023/12/27 11:56:00;;;;;;;0.03;0.03;;;;;;;8.63;100.00;99343.28;5155874;27;20258;-52
2023/12/27 11:58:47;;;;;;;0.00;0.00;;;;;;;8.62;100.00;99337.16;5155666;27;20230;-52
2023/12/27 12:01:36;;;;;;;0.00;0.00;;;;;;;8.82;100.00;99336.09;5155792;27;20303;-52
2023/12/27 12:04:49;;;;;;;0.10;0.10;;;;;;;8.80;100.00;99330.03;5154278;27;20302;-52
2023/12/27 12:08:05;;;;;;;0.00;0.00;;;;;;;8.78;100.00;99323.97;5155410;27;20286;-52
2023/12/27 12:11:06;;;;;;;0.00;0.00;;;;;;;8.91;100.00;99295.13;5154894;27;20204;-52
2023/12/27 12:13:53;;;;;;;0.00;0.00;;;;;;;8.83;100.00;99312.22;5155400;27;20197;-52
2023/12/27 12:16:42;;;;;;;0.10;0.10;;;;;;;8.81;100.00;99321.19;5155291;27;20189;-52
2023/12/27 12:19:31;;;;;;;0.00;0.00;;;;;;;8.83;100.00;99312.22;5153699;27;20224;-52
2023/12/27 12:22:19;;;;;;;0.10;0.10;;;;;;;8.96;100.00;99308.91;5155162;27;20196;-52
2023/12/27 12:25:07;;;;;;;0.00;0.00;;;;;;;9.23;100.00;99286.25;5155186;27;20256;-52
2023/12/27 12:27:55;;;;;;;0.00;0.00;;;;;;;9.21;100.00;99280.19;5154886;27;20258;-52
2023/12/27 12:30:46;;;;;;;0.10;0.10;;;;;;;9.37;100.00;99285.47;5154981;27;20687;-52
2023/12/27 12:33:34;;;;;;;0.00;0.00;;;;;;;9.22;100.00;99281.91;5153711;27;20196;-52
2023/12/27 12:36:21;;;;;;;0.00;0.00;;;;;;;9.29;100.00;99279.75;5154953;27;20200;-52
2023/12/27 12:39:08;;;;;;;0.00;0.00;;;;;;;9.26;100.00;99264.91;5155046;27;20671;-52
2023/12/27 12:41:55;;;;;;;0.00;0.00;;;;;;;9.52;100.00;99262.56;5155081;27;20258;-52
2023/12/27 12:44:43;;;;;;;0.10;0.10;;;;;;;9.07;100.00;99258.97;5153803;27;20195;-50
2023/12/27 12:47:30;;;;;;;0.00;0.00;;;;;;;9.11;100.00;99253.44;5154802;27;20702;-52
2023/12/27 12:50:20;;;;;;;0.00;0.00;;;;;;;9.09;100.00;99236.81;5153338;27;20212;-52
2023/12/27 12:53:14;;;;;;;0.00;0.00;;;;;;;9.14;100.00;99234.75;5154787;27;20322;-52
2023/12/27 12:56:01;;;;;;;0.03;0.03;;;;;;;9.09;100.00;99246.53;5153893;27;20258;-52
2023/12/27 12:58:48;;;;;;;0.00;0.00;;;;;;;9.05;100.00;99245.84;5154733;27;20243;-52
2023/12/27 13:01:35;;;;;;;0.00;0.00;;;;;;;9.03;100.00;99238.94;5154383;27;20193;-52
2023/12/27 13:04:24;;;;;;;0.00;0.00;;;;;;;8.93;100.00;99233.31;5153366;27;20213;-52
2023/12/27 13:07:12;;;;;;;0.10;0.10;;;;;;;9.11;100.00;99223.53;5154378;27;20213;-52
2023/12/27 13:10:00;;;;;;;0.00;0.00;;;;;;;9.14;100.00;99229.47;5154609;27;20193;-52
2023/12/27 13:12:47;;;;;;;0.10;0.10;;;;;;;9.03;100.00;99234.50;5154206;27;20201;-52
2023/12/27 13:15:34;;;;;;;0.00;0.00;;;;;;;9.12;100.00;99238.44;5154538;27;20223;-52
2023/12/27 13:18:21;;;;;;;0.00;0.00;;;;;;;9.01;100.00;99240.84;5154311;27;20204;-52